DW7124 Weather Reports


Display with metric or nautical units.
time (UTC)temp
F
wind
direction
speed
MPH
gust
MPH
rain 1hr
in
rain 24hr
in
rain mn
in
humidity
%
barometer
mb
20190419103014 37 222 0.0 0.0 0.00 0.00 0.00 58 1014.7
20190419101521 37 222 0.0 0.0 0.00 0.00 0.00 56 1014.6
20190419100002 38 222 0.0 0.0 0.00 0.00 0.00 53 1014.5
20190419094853 39 222 0.0 0.0 0.00 0.00 0.00 52 1014.6
20190419093305 40 222 0.0 0.0 0.00 0.00 0.00 49 1014.7
20190419091612 41 222 0.0 0.0 0.00 0.00 0.00 49 1014.7
20190419090144 42 222 0.0 0.0 0.00 0.00 0.00 47 1014.7
20190419084706 43 222 0.0 0.0 0.00 0.00 0.00 45 1014.8
20190419083111 44 222 0.0 0.0 0.00 0.00 0.00 43 1014.7
20190419081643 45 222 0.0 0.0 0.00 0.00 0.00 41 1014.9
20190419080057 46 222 0.0 2.0 0.00 0.00 0.00 40 1015.0
20190419074551 46 222 0.0 2.0 0.00 0.00 0.00 39 1014.9
20190419073058 46 222 0.0 1.0 0.00 0.00 0.00 39 1015.1
20190419071536 47 222 1.0 3.0 0.00 0.00 0.00 39 1014.9
20190419070058 48 222 1.0 2.0 0.00 0.00 0.00 36 1014.9
20190419064542 49 222 0.0 2.0 0.00 0.00 0.00 35 1014.9
20190419063051 49 222 1.0 4.0 0.00 0.00 0.00 35 1014.8
20190419061557 49 222 0.0 5.0 0.00 0.00 0.00 36 1014.8
20190419060047 49 222 1.0 3.0 0.00 0.00 0.00 36 1014.7
20190419054555 49 222 2.0 3.0 0.00 0.00 0.00 37 1014.7
20190419053102 50 222 0.0 2.0 0.00 0.00 0.00 35 1014.8
20190419051554 52 222 0.0 1.0 0.00 0.00 0.00 33 1014.7
20190419050027 52 222 1.0 2.0 0.00 0.00 0.00 32 1014.8
20190419044643 53 222 1.0 3.0 0.00 0.00 0.00 32 1014.6
20190419043027 54 222 1.0 4.0 0.00 0.00 0.00 31 1014.7
20190419041547 54 222 2.0 4.0 0.00 0.00 0.00 30 1014.5
20190419040028 54 222 2.0 4.0 0.00 0.00 0.00 30 1014.4
20190419034557 55 222 3.0 5.0 0.00 0.00 0.00 28 1014.4
20190419033048 56 222 1.0 3.0 0.00 0.00 0.00 27 1014.2
20190419031535 57 222 1.0 3.0 0.00 0.00 0.00 26 1014.0
20190419030028 59 222 0.0 0.0 0.00 0.00 0.00 23 1013.8
20190419024527 61 222 0.0 2.0 0.00 0.00 0.00 21 1013.6
20190419023021 63 222 0.0 2.0 0.00 0.00 0.00 19 1013.4
20190419021521 65 222 1.0 2.0 0.00 0.00 0.00 17 1013.3
20190419020046 67 152 0.0 2.0 0.00 0.00 0.00 16 1013.1
20190419014605 68 222 1.0 3.0 0.00 0.00 0.00 15 1013.1
20190419013016 70 222 1.0 6.0 0.00 0.00 0.00 13 1013.1
20190419010125 72 164 4.0 8.0 0.00 0.00 0.00 12 1013.2
20190419003008 73 185 5.0 11.0 0.00 0.00 0.00 10 1013.4
20190419000142 73 223 3.0 11.0 0.00 0.00 0.00 9 1013.7
20190418234707 74 222 5.0 9.0 0.00 0.00 0.00 8 1013.9
20190418233114 74 158 5.0 13.0 0.00 0.00 0.00 9 1013.9
20190418230120 74 226 4.0 10.0 0.00 0.00 0.00 10 1014.1
20190418224532 73 215 3.0 10.0 0.00 0.00 0.00 11 1014.1
20190418223020 73 214 4.0 9.0 0.00 0.00 0.00 12 1014.4
20190418221553 73 252 3.0 10.0 0.00 0.00 0.00 13 1014.7
20190418220121 73 221 4.0 10.0 0.00 0.00 0.00 13 1014.9
20190418211536 70 221 4.0 11.0 0.00 0.00 0.00 16 1015.7
20190418210125 70 226 5.0 11.0 0.00 0.00 0.00 16 1016.1
20190418204633 69 164 4.0 10.0 0.00 0.00 0.00 18 1016.4
20190418201838 69 86 2.0 11.0 0.00 0.00 0.00 19 1016.8
20190418200116 67 159 3.0 13.0 0.00 0.00 0.00 21 1016.9
20190418194621 67 210 4.0 9.0 0.00 0.00 0.00 20 1017.2
20190418193011 66 223 5.0 13.0 0.00 0.00 0.00 21 1017.4
20190418191621 66 157 2.0 7.0 0.00 0.00 0.00 21 1017.5
20190418190150 66 216 5.0 10.0 0.00 0.00 0.00 22 1017.7
20190418181617 62 91 4.0 8.0 0.00 0.00 0.00 28 1018.4
20190418180116 61 219 5.0 9.0 0.00 0.00 0.00 27 1018.4
20190418174610 60 256 2.0 6.0 0.00 0.00 0.00 30 1018.5
20190418173008 59 185 4.0 9.0 0.00 0.00 0.00 30 1018.4
20190418171526 59 198 4.0 9.0 0.00 0.00 0.00 31 1018.4
20190418170046 58 181 2.0 8.0 0.00 0.00 0.00 32 1018.5
20190418164627 57 275 3.0 8.0 0.00 0.00 0.00 33 1018.5
20190418163037 56 224 3.0 7.0 0.00 0.00 0.00 34 1018.6
20190418161554 56 218 3.0 6.0 0.00 0.00 0.00 35 1018.6
20190418160106 55 287 2.0 6.0 0.00 0.00 0.00 36 1018.6
20190418154846 53 154 1.0 4.0 0.00 0.01 0.00 39 1018.4
20190418153005 52 125 1.0 4.0 0.00 0.01 0.00 42 1018.3
20190418151608 50 222 2.0 3.0 0.00 0.01 0.00 45 1018.1
20190418144554 47 222 2.0 7.0 0.00 0.01 0.00 51 1018.1
20190418143032 45 222 3.0 7.0 0.00 0.01 0.00 54 1018.0
20190418141805 44 222 3.0 7.0 0.00 0.01 0.00 55 1017.8
20190418140216 42 222 2.0 5.0 0.00 0.01 0.00 60 1017.5
20190418133040 36 222 0.0 0.0 0.00 0.02 0.00 72 1017.0
20190418131650 35 222 0.0 0.0 0.00 0.02 0.00 72 1016.5
20190418130125 34 222 0.0 0.0 0.00 0.02 0.00 72 1016.0
20190418124626 34 222 0.0 0.0 0.00 0.02 0.00 72 1015.7
20190418123011 34 222 0.0 0.0 0.00 0.02 0.00 73 1015.3
20190418121611 35 222 0.0 0.0 0.00 0.02 0.00 71 1014.7
20190418120123 35 222 0.0 0.0 0.00 0.02 0.00 69 1014.7
20190418113006 35 222 1.0 3.0 0.00 0.02 0.00 70 1014.0
20190418111552 35 222 0.0 0.0 0.00 0.02 0.00 69 1013.6
20190418110117 35 222 0.0 0.0 0.00 0.02 0.00 66 1013.5